sensor_id;sensor_type;location;lat;lon;timestamp;pressure;altitude;pressure_sealevel;temperature;humidity
64230;BME280;50547;49.498;0.092;2023-04-09T00:02:01;1021.28;;;10.26;74.87
64230;BME280;50547;49.498;0.092;2023-04-09T00:04:30;1021.30;;;10.29;74.74
64230;BME280;50547;49.498;0.092;2023-04-09T00:06:59;1021.28;;;10.20;75.23
64230;BME280;50547;49.498;0.092;2023-04-09T00:09:28;1021.26;;;10.27;74.78
64230;BME280;50547;49.498;0.092;2023-04-09T00:11:57;1021.28;;;10.26;74.87
64230;BME280;50547;49.498;0.092;2023-04-09T00:14:26;1021.24;;;10.31;74.62
64230;BME280;50547;49.498;0.092;2023-04-09T00:16:55;1021.16;;;10.25;74.80
64230;BME280;50547;49.498;0.092;2023-04-09T00:19:24;1021.16;;;10.30;74.63
64230;BME280;50547;49.498;0.092;2023-04-09T00:21:53;1021.18;;;10.37;74.27
64230;BME280;50547;49.498;0.092;2023-04-09T00:24:46;1021.20;;;10.32;74.55
64230;BME280;50547;49.498;0.092;2023-04-09T00:27:16;1021.15;;;10.39;74.27
64230;BME280;50547;49.498;0.092;2023-04-09T00:29:45;1021.16;;;10.35;74.44
64230;BME280;50547;49.498;0.092;2023-04-09T00:32:14;1021.16;;;10.33;74.54
64230;BME280;50547;49.498;0.092;2023-04-09T00:34:43;1021.16;;;10.30;74.67
64230;BME280;50547;49.498;0.092;2023-04-09T00:37:12;1021.11;;;10.23;74.87
64230;BME280;50547;49.498;0.092;2023-04-09T00:39:41;1021.11;;;10.23;74.84
64230;BME280;50547;49.498;0.092;2023-04-09T00:42:10;1021.11;;;10.25;74.70
64230;BME280;50547;49.498;0.092;2023-04-09T00:44:39;1021.03;;;10.25;74.62
64230;BME280;50547;49.498;0.092;2023-04-09T00:47:08;1021.03;;;10.27;74.41
64230;BME280;50547;49.498;0.092;2023-04-09T00:49:37;1020.97;;;10.16;75.05
64230;BME280;50547;49.498;0.092;2023-04-09T00:52:06;1020.97;;;10.16;75.06
64230;BME280;50547;49.498;0.092;2023-04-09T00:54:35;1020.93;;;10.14;74.97
64230;BME280;50547;49.498;0.092;2023-04-09T00:57:05;1020.82;;;10.07;75.26
64230;BME280;50547;49.498;0.092;2023-04-09T00:59:34;1020.78;;;10.04;75.39
64230;BME280;50547;49.498;0.092;2023-04-09T01:02:03;1020.82;;;10.10;75.14
64230;BME280;50547;49.498;0.092;2023-04-09T01:04:32;1020.75;;;10.11;74.98
64230;BME280;50547;49.498;0.092;2023-04-09T01:07:06;1020.71;;;10.13;74.96
64230;BME280;50547;49.498;0.092;2023-04-09T01:09:41;1020.67;;;10.12;74.94
64230;BME280;50547;49.498;0.092;2023-04-09T01:12:17;1020.65;;;10.17;74.63
64230;BME280;50547;49.498;0.092;2023-04-09T01:14:55;1020.67;;;10.09;75.03
64230;BME280;50547;49.498;0.092;2023-04-09T01:17:32;1020.67;;;9.99;75.34
64230;BME280;50547;49.498;0.092;2023-04-09T01:20:07;1020.61;;;9.96;75.42
64230;BME280;50547;49.498;0.092;2023-04-09T01:22:48;1020.57;;;9.92;75.54
64230;BME280;50547;49.498;0.092;2023-04-09T01:25:36;1020.51;;;9.86;75.76
64230;BME280;50547;49.498;0.092;2023-04-09T01:28:15;1020.49;;;9.88;75.64
64230;BME280;50547;49.498;0.092;2023-04-09T01:30:48;1020.45;;;9.82;75.79
64230;BME280;50547;49.498;0.092;2023-04-09T01:33:19;1020.51;;;9.90;75.42
64230;BME280;50547;49.498;0.092;2023-04-09T01:35:49;1020.49;;;9.90;75.38
64230;BME280;50547;49.498;0.092;2023-04-09T01:38:20;1020.57;;;9.86;75.58
64230;BME280;50547;49.498;0.092;2023-04-09T01:40:51;1020.53;;;9.88;75.59
64230;BME280;50547;49.498;0.092;2023-04-09T01:43:20;1020.55;;;9.77;76.03
64230;BME280;50547;49.498;0.092;2023-04-09T01:45:50;1020.51;;;9.76;75.96
64230;BME280;50547;49.498;0.092;2023-04-09T01:48:19;1020.45;;;9.75;75.91
64230;BME280;50547;49.498;0.092;2023-04-09T01:50:49;1020.41;;;9.77;75.69
64230;BME280;50547;49.498;0.092;2023-04-09T01:53:20;1020.45;;;9.71;75.92
64230;BME280;50547;49.498;0.092;2023-04-09T01:55:49;1020.41;;;9.68;76.09
64230;BME280;50547;49.498;0.092;2023-04-09T01:58:19;1020.37;;;9.61;76.36
64230;BME280;50547;49.498;0.092;2023-04-09T02:00:48;1020.43;;;9.63;76.17
64230;BME280;50547;49.498;0.092;2023-04-09T02:03:20;1020.37;;;9.52;76.49
64230;BME280;50547;49.498;0.092;2023-04-09T02:05:56;1020.33;;;9.51;76.47
64230;BME280;50547;49.498;0.092;2023-04-09T02:08:29;1020.23;;;9.52;76.32
64230;BME280;50547;49.498;0.092;2023-04-09T02:11:02;1020.29;;;9.52;76.25
64230;BME280;50547;49.498;0.092;2023-04-09T02:13:32;1020.25;;;9.59;75.82
64230;BME280;50547;49.498;0.092;2023-04-09T02:16:02;1020.22;;;9.55;75.99
64230;BME280;50547;49.498;0.092;2023-04-09T02:18:32;1020.27;;;9.52;76.14
64230;BME280;50547;49.498;0.092;2023-04-09T02:21:02;1020.25;;;9.55;75.92
64230;BME280;50547;49.498;0.092;2023-04-09T02:23:31;1020.25;;;9.59;75.70
64230;BME280;50547;49.498;0.092;2023-04-09T02:26:00;1020.22;;;9.58;75.80
64230;BME280;50547;49.498;0.092;2023-04-09T02:28:29;1020.22;;;9.56;75.88
64230;BME280;50547;49.498;0.092;2023-04-09T02:30:58;1020.22;;;9.49;76.31
64230;BME280;50547;49.498;0.092;2023-04-09T02:33:27;1020.16;;;9.47;76.41
64230;BME280;50547;49.498;0.092;2023-04-09T02:35:56;1020.20;;;9.47;76.30
64230;BME280;50547;49.498;0.092;2023-04-09T02:38:25;1020.27;;;9.47;76.24
64230;BME280;50547;49.498;0.092;2023-04-09T02:40:54;1020.25;;;9.39;76.59
64230;BME280;50547;49.498;0.092;2023-04-09T02:43:23;1020.16;;;9.46;76.14
64230;BME280;50547;49.498;0.092;2023-04-09T02:45:52;1020.10;;;9.46;76.17
64230;BME280;50547;49.498;0.092;2023-04-09T02:48:21;1020.16;;;9.43;76.35
64230;BME280;50547;49.498;0.092;2023-04-09T02:50:50;1020.12;;;9.49;75.94
64230;BME280;50547;49.498;0.092;2023-04-09T02:53:20;1020.20;;;9.37;76.64
64230;BME280;50547;49.498;0.092;2023-04-09T02:55:49;1020.12;;;9.38;76.45
64230;BME280;50547;49.498;0.092;2023-04-09T02:58:18;1020.16;;;9.33;76.77
64230;BME280;50547;49.498;0.092;2023-04-09T03:00:46;1020.06;;;9.35;76.60
64230;BME280;50547;49.498;0.092;2023-04-09T03:03:15;1020.06;;;9.25;77.06
64230;BME280;50547;49.498;0.092;2023-04-09T03:05:44;1020.06;;;9.26;76.97
64230;BME280;50547;49.498;0.092;2023-04-09T03:08:13;1020.02;;;9.11;77.54
64230;BME280;50547;49.498;0.092;2023-04-09T03:10:42;1020.02;;;9.09;77.68
64230;BME280;50547;49.498;0.092;2023-04-09T03:13:11;1019.90;;;9.04;77.75
64230;BME280;50547;49.498;0.092;2023-04-09T03:15:40;1019.94;;;9.04;77.71
64230;BME280;50547;49.498;0.092;2023-04-09T03:18:09;1019.98;;;9.07;77.44
64230;BME280;50547;49.498;0.092;2023-04-09T03:20:38;1020.02;;;9.05;77.49
64230;BME280;50547;49.498;0.092;2023-04-09T03:23:07;1019.98;;;8.98;77.78
64230;BME280;50547;49.498;0.092;2023-04-09T03:25:36;1019.88;;;8.95;77.89
64230;BME280;50547;49.498;0.092;2023-04-09T03:28:05;1019.94;;;8.96;77.80
64230;BME280;50547;49.498;0.092;2023-04-09T03:30:34;1019.92;;;8.95;77.64
64230;BME280;50547;49.498;0.092;2023-04-09T03:33:03;1019.92;;;8.97;77.52
64230;BME280;50547;49.498;0.092;2023-04-09T03:35:32;1019.88;;;9.04;77.19
64230;BME280;50547;49.498;0.092;2023-04-09T03:38:01;1019.90;;;8.92;77.78
64230;BME280;50547;49.498;0.092;2023-04-09T03:40:30;1019.86;;;8.92;77.79
64230;BME280;50547;49.498;0.092;2023-04-09T03:42:59;1019.90;;;8.89;77.85
64230;BME280;50547;49.498;0.092;2023-04-09T03:45:28;1019.86;;;8.86;78.07
64230;BME280;50547;49.498;0.092;2023-04-09T03:47:57;1019.94;;;8.86;78.03
64230;BME280;50547;49.498;0.092;2023-04-09T03:50:26;1019.96;;;8.88;77.94
64230;BME280;50547;49.498;0.092;2023-04-09T03:52:55;1019.90;;;8.85;78.00
64230;BME280;50547;49.498;0.092;2023-04-09T03:55:24;1019.98;;;8.80;78.21
64230;BME280;50547;49.498;0.092;2023-04-09T03:57:53;1019.96;;;8.80;78.13
64230;BME280;50547;49.498;0.092;2023-04-09T04:00:22;1019.98;;;8.77;78.23
64230;BME280;50547;49.498;0.092;2023-04-09T04:02:51;1019.96;;;8.81;78.08
64230;BME280;50547;49.498;0.092;2023-04-09T04:05:22;1019.92;;;8.79;78.15
64230;BME280;50547;49.498;0.092;2023-04-09T04:07:51;1019.94;;;8.76;78.35
64230;BME280;50547;49.498;0.092;2023-04-09T04:10:20;1019.94;;;8.79;78.15
64230;BME280;50547;49.498;0.092;2023-04-09T04:12:49;1019.96;;;8.77;78.10
64230;BME280;50547;49.498;0.092;2023-04-09T04:15:18;1019.98;;;8.77;78.14
64230;BME280;50547;49.498;0.092;2023-04-09T04:17:47;1020.02;;;8.74;78.32
64230;BME280;50547;49.498;0.092;2023-04-09T04:20:16;1019.96;;;8.78;78.00
64230;BME280;50547;49.498;0.092;2023-04-09T04:22:45;1020.02;;;8.79;78.05
64230;BME280;50547;49.498;0.092;2023-04-09T04:25:14;1020.00;;;8.85;77.73
64230;BME280;50547;49.498;0.092;2023-04-09T04:27:43;1019.98;;;8.78;78.08
64230;BME280;50547;49.498;0.092;2023-04-09T04:30:12;1019.98;;;8.80;77.94
64230;BME280;50547;49.498;0.092;2023-04-09T04:32:41;1019.94;;;8.80;77.86
64230;BME280;50547;49.498;0.092;2023-04-09T04:35:10;1020.00;;;8.74;78.19
64230;BME280;50547;49.498;0.092;2023-04-09T04:37:39;1020.02;;;8.73;78.22
64230;BME280;50547;49.498;0.092;2023-04-09T04:40:09;1020.04;;;8.81;77.82
64230;BME280;50547;49.498;0.092;2023-04-09T04:42:38;1020.04;;;8.83;77.73
64230;BME280;50547;49.498;0.092;2023-04-09T04:45:08;1020.06;;;8.76;77.99
64230;BME280;50547;49.498;0.092;2023-04-09T04:47:37;1020.06;;;8.83;77.65
64230;BME280;50547;49.498;0.092;2023-04-09T04:50:08;1020.14;;;8.84;77.60
64230;BME280;50547;49.498;0.092;2023-04-09T04:52:37;1020.14;;;8.81;77.70
64230;BME280;50547;49.498;0.092;2023-04-09T04:55:06;1020.12;;;8.81;77.75
64230;BME280;50547;49.498;0.092;2023-04-09T04:57:35;1020.14;;;8.78;77.86
64230;BME280;50547;49.498;0.092;2023-04-09T05:00:05;1020.12;;;8.78;77.79
64230;BME280;50547;49.498;0.092;2023-04-09T05:02:35;1020.12;;;8.81;77.65
64230;BME280;50547;49.498;0.092;2023-04-09T05:05:04;1020.10;;;8.71;78.24
64230;BME280;50547;49.498;0.092;2023-04-09T05:07:33;1020.06;;;8.72;78.03
64230;BME280;50547;49.498;0.092;2023-04-09T05:10:03;1020.10;;;8.60;78.65
64230;BME280;50547;49.498;0.092;2023-04-09T05:12:32;1020.06;;;8.61;78.56
64230;BME280;50547;49.498;0.092;2023-04-09T05:15:01;1020.06;;;8.65;78.20
64230;BME280;50547;49.498;0.092;2023-04-09T05:17:30;1020.08;;;8.59;78.54
64230;BME280;50547;49.498;0.092;2023-04-09T05:19:59;1020.04;;;8.61;78.52
64230;BME280;50547;49.498;0.092;2023-04-09T05:22:28;1020.10;;;8.67;78.10
64230;BME280;50547;49.498;0.092;2023-04-09T05:24:57;1020.04;;;8.68;78.16
64230;BME280;50547;49.498;0.092;2023-04-09T05:27:26;1020.04;;;8.68;78.24
64230;BME280;50547;49.498;0.092;2023-04-09T05:29:52;1020.00;;;8.55;78.90
64230;BME280;50547;49.498;0.092;2023-04-09T05:32:21;1019.94;;;8.56;78.84
64230;BME280;50547;49.498;0.092;2023-04-09T05:34:50;1019.96;;;8.57;78.74
64230;BME280;50547;49.498;0.092;2023-04-09T05:37:16;1019.90;;;8.59;78.78
64230;BME280;50547;49.498;0.092;2023-04-09T05:39:45;1019.88;;;8.53;79.00
64230;BME280;50547;49.498;0.092;2023-04-09T05:42:14;1019.90;;;8.52;79.04
64230;BME280;50547;49.498;0.092;2023-04-09T05:44:43;1019.92;;;8.55;78.86
64230;BME280;50547;49.498;0.092;2023-04-09T05:47:12;1019.96;;;8.59;78.64
64230;BME280;50547;49.498;0.092;2023-04-09T05:49:41;1019.86;;;8.48;79.33
64230;BME280;50547;49.498;0.092;2023-04-09T05:52:10;1019.81;;;8.49;79.13
64230;BME280;50547;49.498;0.092;2023-04-09T05:54:36;1019.94;;;8.55;78.75
64230;BME280;50547;49.498;0.092;2023-04-09T05:57:05;1019.94;;;8.62;78.38
64230;BME280;50547;49.498;0.092;2023-04-09T05:59:34;1019.96;;;8.68;78.21
64230;BME280;50547;49.498;0.092;2023-04-09T06:02:03;1019.98;;;8.71;77.99
64230;BME280;50547;49.498;0.092;2023-04-09T06:04:32;1019.98;;;8.89;77.21
64230;BME280;50547;49.498;0.092;2023-04-09T06:07:01;1019.98;;;8.96;77.05
64230;BME280;50547;49.498;0.092;2023-04-09T06:09:30;1020.04;;;9.01;76.81
64230;BME280;50547;49.498;0.092;2023-04-09T06:11:56;1020.00;;;9.05;76.80
64230;BME280;50547;49.498;0.092;2023-04-09T06:14:25;1020.00;;;9.18;76.25
64230;BME280;50547;49.498;0.092;2023-04-09T06:16:54;1019.96;;;9.16;76.30
64230;BME280;50547;49.498;0.092;2023-04-09T06:19:21;1020.00;;;9.15;76.42
64230;BME280;50547;49.498;0.092;2023-04-09T06:21:50;1019.98;;;9.18;76.36
64230;BME280;50547;49.498;0.092;2023-04-09T06:24:20;1019.96;;;9.11;76.56
64230;BME280;50547;49.498;0.092;2023-04-09T06:26:49;1020.04;;;9.08;76.66
64230;BME280;50547;49.498;0.092;2023-04-09T06:29:18;1019.98;;;9.06;76.65
64230;BME280;50547;49.498;0.092;2023-04-09T06:31:46;1019.94;;;8.99;76.94
64230;BME280;50547;49.498;0.092;2023-04-09T06:34:16;1019.98;;;8.99;76.90
64230;BME280;50547;49.498;0.092;2023-04-09T06:36:45;1019.86;;;9.00;76.89
64230;BME280;50547;49.498;0.092;2023-04-09T06:39:14;1019.84;;;8.93;77.28
64230;BME280;50547;49.498;0.092;2023-04-09T06:41:40;1019.88;;;9.06;76.66
64230;BME280;50547;49.498;0.092;2023-04-09T06:44:09;1019.96;;;9.02;76.89
64230;BME280;50547;49.498;0.092;2023-04-09T06:46:38;1019.98;;;9.06;76.93
64230;BME280;50547;49.498;0.092;2023-04-09T06:49:07;1019.96;;;9.12;76.60
64230;BME280;50547;49.498;0.092;2023-04-09T06:51:36;1020.02;;;9.18;76.36
64230;BME280;50547;49.498;0.092;2023-04-09T06:54:05;1020.04;;;9.25;76.13
64230;BME280;50547;49.498;0.092;2023-04-09T06:56:34;1020.00;;;9.25;76.25
64230;BME280;50547;49.498;0.092;2023-04-09T06:59:00;1020.08;;;9.36;75.79
64230;BME280;50547;49.498;0.092;2023-04-09T07:01:29;1020.00;;;9.49;75.14
64230;BME280;50547;49.498;0.092;2023-04-09T07:03:58;1020.00;;;9.51;75.25
64230;BME280;50547;49.498;0.092;2023-04-09T07:06:24;1020.04;;;9.85;74.01
64230;BME280;50547;49.498;0.092;2023-04-09T07:08:53;1020.00;;;10.04;73.20
64230;BME280;50547;49.498;0.092;2023-04-09T07:11:22;1019.98;;;10.18;72.74
64230;BME280;50547;49.498;0.092;2023-04-09T07:13:51;1020.06;;;10.25;72.73
64230;BME280;50547;49.498;0.092;2023-04-09T07:16:20;1019.98;;;10.52;71.80
64230;BME280;50547;49.498;0.092;2023-04-09T07:18:49;1019.96;;;10.56;71.54
64230;BME280;50547;49.498;0.092;2023-04-09T07:21:19;1019.88;;;10.48;71.93
64230;BME280;50547;49.498;0.092;2023-04-09T07:23:48;1019.92;;;10.38;72.40
64230;BME280;50547;49.498;0.092;2023-04-09T07:26:17;1019.92;;;10.25;72.94
64230;BME280;50547;49.498;0.092;2023-04-09T07:28:46;1019.94;;;10.27;73.22
64230;BME280;50547;49.498;0.092;2023-04-09T07:31:15;1019.90;;;10.37;72.72
64230;BME280;50547;49.498;0.092;2023-04-09T07:33:44;1019.81;;;10.35;72.72
64230;BME280;50547;49.498;0.092;2023-04-09T07:36:13;1019.84;;;10.30;72.93
64230;BME280;50547;49.498;0.092;2023-04-09T07:38:42;1019.88;;;10.35;72.76
64230;BME280;50547;49.498;0.092;2023-04-09T07:41:11;1019.83;;;10.29;73.12
64230;BME280;50547;49.498;0.092;2023-04-09T07:43:40;1019.90;;;10.12;73.89
64230;BME280;50547;49.498;0.092;2023-04-09T07:46:09;1019.94;;;10.16;73.60
64230;BME280;50547;49.498;0.092;2023-04-09T07:48:38;1019.94;;;10.23;73.26
64230;BME280;50547;49.498;0.092;2023-04-09T07:51:07;1020.02;;;10.33;72.84
64230;BME280;50547;49.498;0.092;2023-04-09T07:53:36;1020.04;;;10.40;72.82
64230;BME280;50547;49.498;0.092;2023-04-09T07:56:05;1020.00;;;10.53;72.22
64230;BME280;50547;49.498;0.092;2023-04-09T07:58:35;1020.06;;;10.61;72.05
64230;BME280;50547;49.498;0.092;2023-04-09T08:01:04;1020.02;;;10.63;71.87
64230;BME280;50547;49.498;0.092;2023-04-09T08:03:33;1020.04;;;10.75;71.67
64230;BME280;50547;49.498;0.092;2023-04-09T08:06:02;1020.02;;;10.95;70.82
64230;BME280;50547;49.498;0.092;2023-04-09T08:08:32;1020.04;;;11.27;69.88
64230;BME280;50547;49.498;0.092;2023-04-09T08:11:01;1020.04;;;11.55;68.59
64230;BME280;50547;49.498;0.092;2023-04-09T08:13:30;1020.08;;;11.84;67.82
64230;BME280;50547;49.498;0.092;2023-04-09T08:15:59;1020.08;;;12.02;67.23
64230;BME280;50547;49.498;0.092;2023-04-09T08:18:28;1020.04;;;12.16;67.12
64230;BME280;50547;49.498;0.092;2023-04-09T08:20:57;1020.18;;;12.41;66.45
64230;BME280;50547;49.498;0.092;2023-04-09T08:23:26;1020.14;;;12.87;65.13
64230;BME280;50547;49.498;0.092;2023-04-09T08:25:55;1020.12;;;12.84;65.11
64230;BME280;50547;49.498;0.092;2023-04-09T08:28:24;1020.10;;;13.19;64.22
64230;BME280;50547;49.498;0.092;2023-04-09T08:30:53;1020.06;;;13.02;65.17
64230;BME280;50547;49.498;0.092;2023-04-09T08:33:22;1020.06;;;13.25;64.79
64230;BME280;50547;49.498;0.092;2023-04-09T08:35:48;1020.02;;;13.41;64.59
64230;BME280;50547;49.498;0.092;2023-04-09T08:38:17;1019.90;;;13.52;64.45
64230;BME280;50547;49.498;0.092;2023-04-09T08:40:46;1019.84;;;13.50;64.02
64230;BME280;50547;49.498;0.092;2023-04-09T08:43:16;1019.84;;;13.62;64.25
64230;BME280;50547;49.498;0.092;2023-04-09T08:45:47;1019.90;;;13.86;63.01
64230;BME280;50547;49.498;0.092;2023-04-09T08:48:16;1019.92;;;14.26;62.18
64230;BME280;50547;49.498;0.092;2023-04-09T08:50:51;1019.90;;;14.53;60.90
64230;BME280;50547;49.498;0.092;2023-04-09T08:53:21;1019.88;;;14.79;60.71
64230;BME280;50547;49.498;0.092;2023-04-09T08:55:50;1019.92;;;15.21;59.48
64230;BME280;50547;49.498;0.092;2023-04-09T08:58:29;1019.86;;;15.37;58.64
64230;BME280;50547;49.498;0.092;2023-04-09T09:00:58;1019.92;;;15.50;58.99
64230;BME280;50547;49.498;0.092;2023-04-09T09:03:27;1019.84;;;15.63;58.41
64230;BME280;50547;49.498;0.092;2023-04-09T09:05:56;1019.83;;;16.11;57.50
64230;BME280;50547;49.498;0.092;2023-04-09T09:08:25;1019.84;;;16.39;56.25
64230;BME280;50547;49.498;0.092;2023-04-09T09:10:54;1019.79;;;16.45;55.94
64230;BME280;50547;49.498;0.092;2023-04-09T09:13:25;1019.79;;;16.20;57.45
64230;BME280;50547;49.498;0.092;2023-04-09T09:16:10;1019.77;;;16.37;56.37
64230;BME280;50547;49.498;0.092;2023-04-09T09:18:41;1019.71;;;16.64;55.82
64230;BME280;50547;49.498;0.092;2023-04-09T09:21:12;1019.71;;;16.67;55.85
64230;BME280;50547;49.498;0.092;2023-04-09T09:23:38;1019.69;;;16.73;56.04
64230;BME280;50547;49.498;0.092;2023-04-09T09:26:12;1019.73;;;16.87;55.81
64230;BME280;50547;49.498;0.092;2023-04-09T09:28:41;1019.75;;;16.90;55.46
64230;BME280;50547;49.498;0.092;2023-04-09T09:31:11;1019.69;;;16.97;55.24
64230;BME280;50547;49.498;0.092;2023-04-09T09:33:41;1019.67;;;17.54;53.63
64230;BME280;50547;49.498;0.092;2023-04-09T09:36:11;1019.69;;;17.44;54.47
64230;BME280;50547;49.498;0.092;2023-04-09T09:38:56;1019.63;;;17.82;53.39
64230;BME280;50547;49.498;0.092;2023-04-09T09:41:26;1019.59;;;18.02;52.55
64230;BME280;50547;49.498;0.092;2023-04-09T09:43:55;1019.61;;;18.21;52.14
64230;BME280;50547;49.498;0.092;2023-04-09T09:46:24;1019.61;;;18.29;52.04
64230;BME280;50547;49.498;0.092;2023-04-09T09:48:53;1019.57;;;18.30;51.95
64230;BME280;50547;49.498;0.092;2023-04-09T09:51:25;1019.53;;;18.58;52.25
64230;BME280;50547;49.498;0.092;2023-04-09T09:53:55;1019.53;;;18.91;50.24
64230;BME280;50547;49.498;0.092;2023-04-09T09:56:29;1019.53;;;18.91;50.50
64230;BME280;50547;49.498;0.092;2023-04-09T09:59:05;1019.49;;;18.56;51.83
64230;BME280;50547;49.498;0.092;2023-04-09T10:01:34;1019.51;;;18.90;51.85
64230;BME280;50547;49.498;0.092;2023-04-09T10:04:05;1019.53;;;18.73;51.47
64230;BME280;50547;49.498;0.092;2023-04-09T10:06:34;1019.55;;;19.02;50.37
64230;BME280;50547;49.498;0.092;2023-04-09T10:09:04;1019.59;;;19.29;50.15
64230;BME280;50547;49.498;0.092;2023-04-09T10:11:35;1019.53;;;19.89;48.67
64230;BME280;50547;49.498;0.092;2023-04-09T10:14:04;1019.51;;;19.74;46.57
64230;BME280;50547;49.498;0.092;2023-04-09T10:16:33;1019.49;;;19.47;47.54
64230;BME280;50547;49.498;0.092;2023-04-09T10:19:02;1019.41;;;19.64;47.07
64230;BME280;50547;49.498;0.092;2023-04-09T10:21:37;1019.26;;;19.53;46.12
64230;BME280;50547;49.498;0.092;2023-04-09T10:24:09;1019.28;;;19.53;48.18
64230;BME280;50547;49.498;0.092;2023-04-09T10:26:40;1019.26;;;19.87;45.59
64230;BME280;50547;49.498;0.092;2023-04-09T10:29:10;1019.34;;;19.80;45.25
64230;BME280;50547;49.498;0.092;2023-04-09T10:31:50;1019.28;;;19.69;44.89
64230;BME280;50547;49.498;0.092;2023-04-09T10:34:22;1019.26;;;19.73;45.43
64230;BME280;50547;49.498;0.092;2023-04-09T10:36:55;1019.22;;;20.07;44.68
64230;BME280;50547;49.498;0.092;2023-04-09T10:39:25;1019.20;;;19.80;45.43
64230;BME280;50547;49.498;0.092;2023-04-09T10:41:55;1019.14;;;19.68;45.68
64230;BME280;50547;49.498;0.092;2023-04-09T10:44:27;1019.14;;;19.66;45.74
64230;BME280;50547;49.498;0.092;2023-04-09T10:46:56;1019.20;;;19.99;45.12
64230;BME280;50547;49.498;0.092;2023-04-09T10:49:26;1019.14;;;20.02;45.16
64230;BME280;50547;49.498;0.092;2023-04-09T10:52:01;1019.12;;;20.15;44.30
64230;BME280;50547;49.498;0.092;2023-04-09T10:54:40;1019.10;;;20.05;43.99
64230;BME280;50547;49.498;0.092;2023-04-09T10:57:25;1019.02;;;20.03;44.72
64230;BME280;50547;49.498;0.092;2023-04-09T10:59:54;1019.02;;;20.07;44.14
64230;BME280;50547;49.498;0.092;2023-04-09T11:02:47;1018.98;;;20.26;42.66
64230;BME280;50547;49.498;0.092;2023-04-09T11:05:29;1018.89;;;20.14;42.74
64230;BME280;50547;49.498;0.092;2023-04-09T11:08:04;1018.98;;;20.42;42.69
64230;BME280;50547;49.498;0.092;2023-04-09T11:10:33;1018.94;;;20.47;41.91
64230;BME280;50547;49.498;0.092;2023-04-09T11:13:03;1018.87;;;20.46;42.60
64230;BME280;50547;49.498;0.092;2023-04-09T11:15:33;1018.79;;;20.98;40.77
64230;BME280;50547;49.498;0.092;2023-04-09T11:18:02;1018.71;;;21.20;40.03
64230;BME280;50547;49.498;0.092;2023-04-09T11:20:33;1018.69;;;21.21;40.42
64230;BME280;50547;49.498;0.092;2023-04-09T11:23:02;1018.65;;;21.34;40.18
64230;BME280;50547;49.498;0.092;2023-04-09T11:25:32;1018.65;;;20.56;43.21
64230;BME280;50547;49.498;0.092;2023-04-09T11:28:03;1018.71;;;20.69;42.07
64230;BME280;50547;49.498;0.092;2023-04-09T11:30:32;1018.65;;;21.40;39.52
64230;BME280;50547;49.498;0.092;2023-04-09T11:33:01;1018.59;;;21.27;40.23
64230;BME280;50547;49.498;0.092;2023-04-09T11:35:33;1018.61;;;21.52;40.38
64230;BME280;50547;49.498;0.092;2023-04-09T11:38:05;1018.59;;;21.79;39.17
64230;BME280;50547;49.498;0.092;2023-04-09T11:40:35;1018.53;;;21.53;40.36
64230;BME280;50547;49.498;0.092;2023-04-09T11:43:07;1018.51;;;21.81;39.73
64230;BME280;50547;49.498;0.092;2023-04-09T11:45:36;1018.49;;;21.74;40.96
64230;BME280;50547;49.498;0.092;2023-04-09T11:48:06;1018.47;;;21.76;40.47
64230;BME280;50547;49.498;0.092;2023-04-09T11:50:33;1018.51;;;21.83;40.90
64230;BME280;50547;49.498;0.092;2023-04-09T11:53:14;1018.47;;;21.57;41.31
64230;BME280;50547;49.498;0.092;2023-04-09T11:55:46;1018.25;;;20.99;43.20
64230;BME280;50547;49.498;0.092;2023-04-09T11:58:15;1018.40;;;21.10;42.34
64230;BME280;50547;49.498;0.092;2023-04-09T12:00:45;1018.25;;;21.36;42.07
64230;BME280;50547;49.498;0.092;2023-04-09T12:03:11;1018.27;;;21.16;42.59
64230;BME280;50547;49.498;0.092;2023-04-09T12:05:44;1018.25;;;21.33;41.67
64230;BME280;50547;49.498;0.092;2023-04-09T12:08:10;1018.21;;;21.45;41.70
64230;BME280;50547;49.498;0.092;2023-04-09T12:10:40;1018.17;;;21.36;42.03
64230;BME280;50547;49.498;0.092;2023-04-09T12:13:10;1018.13;;;21.06;43.03
64230;BME280;50547;49.498;0.092;2023-04-09T12:15:40;1018.11;;;21.19;43.23
64230;BME280;50547;49.498;0.092;2023-04-09T12:18:12;1018.07;;;21.19;43.37
64230;BME280;50547;49.498;0.092;2023-04-09T12:20:45;1018.07;;;21.55;42.06
64230;BME280;50547;49.498;0.092;2023-04-09T12:23:15;1018.07;;;21.71;41.34
64230;BME280;50547;49.498;0.092;2023-04-09T12:25:43;1018.05;;;21.69;42.28
64230;BME280;50547;49.498;0.092;2023-04-09T12:28:14;1017.97;;;21.53;42.80
64230;BME280;50547;49.498;0.092;2023-04-09T12:30:43;1017.97;;;21.77;41.90
64230;BME280;50547;49.498;0.092;2023-04-09T12:33:12;1017.88;;;21.93;41.65
64230;BME280;50547;49.498;0.092;2023-04-09T12:35:41;1017.88;;;21.68;42.26
64230;BME280;50547;49.498;0.092;2023-04-09T12:38:10;1017.90;;;21.98;41.47
64230;BME280;50547;49.498;0.092;2023-04-09T12:40:40;1017.88;;;22.23;40.93
64230;BME280;50547;49.498;0.092;2023-04-09T12:43:08;1017.86;;;22.15;41.94
64230;BME280;50547;49.498;0.092;2023-04-09T12:45:37;1017.84;;;22.23;42.02
64230;BME280;50547;49.498;0.092;2023-04-09T12:48:06;1017.82;;;22.24;41.59
64230;BME280;50547;49.498;0.092;2023-04-09T12:50:35;1017.78;;;21.77;42.75
64230;BME280;50547;49.498;0.092;2023-04-09T12:53:04;1017.80;;;22.11;41.88
64230;BME280;50547;49.498;0.092;2023-04-09T12:55:33;1017.76;;;22.55;40.60
64230;BME280;50547;49.498;0.092;2023-04-09T12:58:02;1017.76;;;23.05;39.33
64230;BME280;50547;49.498;0.092;2023-04-09T13:00:31;1017.74;;;23.09;38.85
64230;BME280;50547;49.498;0.092;2023-04-09T13:03:00;1017.70;;;23.56;37.96
64230;BME280;50547;49.498;0.092;2023-04-09T13:05:29;1017.70;;;23.63;38.34
64230;BME280;50547;49.498;0.092;2023-04-09T13:07:58;1017.64;;;23.66;38.75
64230;BME280;50547;49.498;0.092;2023-04-09T13:10:28;1017.62;;;23.58;39.08
64230;BME280;50547;49.498;0.092;2023-04-09T13:12:59;1017.64;;;23.95;38.63
64230;BME280;50547;49.498;0.092;2023-04-09T13:15:28;1017.58;;;24.00;38.56
64230;BME280;50547;49.498;0.092;2023-04-09T13:17:57;1017.53;;;23.64;39.71
64230;BME280;50547;49.498;0.092;2023-04-09T13:20:26;1017.47;;;23.53;40.96
64230;BME280;50547;49.498;0.092;2023-04-09T13:22:55;1017.49;;;23.50;41.23
64230;BME280;50547;49.498;0.092;2023-04-09T13:25:24;1017.45;;;23.56;41.08
64230;BME280;50547;49.498;0.092;2023-04-09T13:27:53;1017.43;;;23.50;40.95
64230;BME280;50547;49.498;0.092;2023-04-09T13:30:22;1017.37;;;23.23;41.35